Athelstane, Wisconsin
Current Conditions -  °F | °C
As of 10:54 AM on Thursday 30 Oct 2014 (Local Time) from KIMT Reporting Station
Overcast Overcast  
Wind Chill: 41°   Ceiling: 2000
Heat Index: 41°   Visibility: 10mi
Dew Point: 32°   Wind: 0mph
Humidity: 70%   Direction: NA
Pressure: 30.02"   Gusts: NA
Location:  45.42°N, 88.1°W
Report Text: KIMT 301554Z AUTO 00000KT 10SM OVC020 05/00 A3002 RMK AO2 SLP177 T00500000
Loading
Personal Weather Stations






























Interactive Weather Map New forecast layout! Learn more

10-Day Weather Forecast

Advertisements
Track Severe Weather on mobile